Time;durP1;ratioP1;P1;durP2;ratioP2;P2;SDS_P1;SDS_P2;PMS_P1;PMS_P2;Temp;Humidity;BMP_temperature;BMP_pressure;BME280_temperature;BME280_humidity;BME280_pressure;Samples;Min_cycle;Max_cycle;Signal;HPM_P1;HPM_P2
2022/11/26 07:06:35;;;;;;;24.20;10.15;;;;;;;5.71;100.00;102620.22;5267363;28;20430;-72
2022/11/26 07:09:08;;;;;;;24.05;10.05;;;;;;;5.68;100.00;102631.66;5279441;28;20029;-71
2022/11/26 07:11:41;;;;;;;15.90;8.88;;;;;;;5.69;100.00;102627.84;5280132;28;20104;-71
2022/11/26 07:14:12;;;;;;;13.00;9.55;;;;;;;5.64;100.00;102626.56;5280009;28;20098;-71
2022/11/26 07:16:43;;;;;;;18.55;10.07;;;;;;;5.72;100.00;102638.41;5279322;28;20028;-71
2022/11/26 07:19:15;;;;;;;20.58;9.52;;;;;;;5.72;100.00;102643.94;5265415;28;20075;-71
2022/11/26 07:21:49;;;;;;;13.93;8.88;;;;;;;5.75;100.00;102643.50;5258207;28;20044;-71
2022/11/26 07:24:20;;;;;;;20.67;10.45;;;;;;;5.65;100.00;102644.78;5253097;28;20311;-71
2022/11/26 07:26:51;;;;;;;16.20;9.27;;;;;;;5.71;100.00;102651.34;5246351;28;20436;-71
2022/11/26 07:29:23;;;;;;;20.42;10.23;;;;;;;5.72;100.00;102654.94;5246645;28;20040;-71
2022/11/26 07:31:54;;;;;;;17.65;9.05;;;;;;;5.69;100.00;102650.72;5241874;28;20013;-71
2022/11/26 07:34:25;;;;;;;18.50;10.20;;;;;;;5.70;100.00;102651.53;5258923;28;20040;-71
2022/11/26 07:36:57;;;;;;;15.77;11.02;;;;;;;5.72;100.00;102649.44;5258166;28;20098;-71
2022/11/26 07:39:28;;;;;;;18.75;10.82;;;;;;;5.77;100.00;102647.72;5258283;28;20425;-71
2022/11/26 07:42:06;;;;;;;23.20;10.85;;;;;;;5.76;100.00;102648.81;5247335;28;20029;-71
2022/11/26 07:44:37;;;;;;;19.83;10.13;;;;;;;5.74;100.00;102658.34;5258540;28;20040;-71
2022/11/26 07:47:08;;;;;;;17.48;10.85;;;;;;;5.79;100.00;102653.03;5259877;28;20033;-71
2022/11/26 07:49:40;;;;;;;19.88;11.30;;;;;;;5.77;100.00;102658.75;5263373;28;20026;-71
2022/11/26 07:52:11;;;;;;;21.45;11.88;;;;;;;5.79;100.00;102658.53;5239642;28;20036;-71
2022/11/26 07:54:42;;;;;;;22.55;12.75;;;;;;;5.79;100.00;102647.53;5271914;28;20070;-71
2022/11/26 07:57:14;;;;;;;26.05;14.75;;;;;;;5.84;100.00;102654.06;5273222;28;20424;-69
2022/11/26 07:59:48;;;;;;;19.00;12.05;;;;;;;5.92;100.00;102650.25;5256340;28;20524;-70
2022/11/26 08:02:19;;;;;;;26.60;12.43;;;;;;;5.90;100.00;102649.63;5258511;28;20110;-70
2022/11/26 08:04:54;;;;;;;22.42;13.18;;;;;;;5.99;100.00;102655.78;5253863;28;20081;-69
2022/11/26 08:07:28;;;;;;;28.77;12.80;;;;;;;6.01;100.00;102654.53;5275042;28;20036;-69
2022/11/26 08:09:59;;;;;;;21.17;13.45;;;;;;;6.05;100.00;102661.28;5278276;28;20012;-69
2022/11/26 08:12:30;;;;;;;18.02;11.43;;;;;;;6.04;100.00;102653.25;5266751;28;20396;-69
2022/11/26 08:15:04;;;;;;;20.35;12.18;;;;;;;6.08;100.00;102654.47;5249521;28;20060;-69
2022/11/26 08:17:36;;;;;;;20.13;11.70;;;;;;;6.08;100.00;102660.00;5245390;28;20029;-69
2022/11/26 08:20:10;;;;;;;37.85;25.77;;;;;;;6.09;100.00;102662.53;5242228;28;20087;-70
2022/11/26 08:22:41;;;;;;;26.27;12.15;;;;;;;6.06;100.00;102662.97;5236201;28;20096;-70
2022/11/26 08:25:13;;;;;;;20.75;12.38;;;;;;;6.05;100.00;102665.94;5232880;28;20128;-70
2022/11/26 08:27:44;;;;;;;18.98;12.30;;;;;;;6.18;100.00;102665.06;5236295;28;20033;-70
2022/11/26 08:30:18;;;;;;;21.77;10.77;;;;;;;6.20;100.00;102668.47;5228921;28;20060;-69
2022/11/26 08:32:49;;;;;;;19.95;12.40;;;;;;;6.29;100.00;102667.16;5225994;28;20045;-69
2022/11/26 08:35:21;;;;;;;19.60;11.63;;;;;;;6.35;100.00;102671.81;5222514;28;20026;-69
2022/11/26 08:37:52;;;;;;;19.10;10.32;;;;;;;6.37;100.00;102674.34;5232174;28;20025;-69
2022/11/26 08:40:23;;;;;;;18.08;11.27;;;;;;;6.37;100.00;102679.88;5242481;28;20029;-69
2022/11/26 08:42:54;;;;;;;20.38;11.02;;;;;;;6.48;100.00;102681.94;5242785;28;20025;-69
2022/11/26 08:45:26;;;;;;;24.65;12.00;;;;;;;6.49;100.00;102681.72;5243532;28;20099;-70
2022/11/26 08:47:57;;;;;;;20.50;10.93;;;;;;;6.46;100.00;102673.88;5234706;28;20025;-69
2022/11/26 08:50:29;;;;;;;21.65;11.27;;;;;;;6.52;100.00;102673.03;5222659;28;20021;-68
2022/11/26 08:53:00;;;;;;;19.85;10.35;;;;;;;6.59;100.00;102678.50;5230086;28;20036;-69
2022/11/26 08:55:31;;;;;;;18.52;10.05;;;;;;;6.52;100.00;102678.53;5242827;28;20025;-69
2022/11/26 08:58:03;;;;;;;25.90;11.25;;;;;;;6.64;100.00;102675.06;5242757;28;20030;-69
2022/11/26 09:00:35;;;;;;;19.05;10.77;;;;;;;6.66;100.00;102676.56;5237895;28;20040;-69
2022/11/26 09:03:07;;;;;;;17.30;10.18;;;;;;;6.71;100.00;102678.66;5228233;28;20080;-69
2022/11/26 09:05:38;;;;;;;20.45;11.32;;;;;;;6.69;100.00;102683.53;5227473;28;20126;-69
2022/11/26 09:08:09;;;;;;;19.23;11.38;;;;;;;6.78;100.00;102682.25;5241921;28;20120;-69
2022/11/26 09:10:41;;;;;;;25.58;13.48;;;;;;;6.81;100.00;102687.31;5235557;28;20048;-69
2022/11/26 09:13:12;;;;;;;18.55;11.30;;;;;;;6.86;100.00;102695.78;5235662;28;20508;-69
2022/11/26 09:15:43;;;;;;;23.45;12.07;;;;;;;6.83;100.00;102707.25;5221804;28;20025;-69
2022/11/26 09:18:16;;;;;;;17.65;9.75;;;;;;;6.87;100.00;102700.22;5231000;28;20025;-70
2022/11/26 09:20:47;;;;;;;18.73;10.75;;;;;;;6.86;100.00;102700.44;5242169;28;20484;-69
2022/11/26 09:23:18;;;;;;;16.42;8.82;;;;;;;6.89;100.00;102698.09;5230443;28;20050;-70
2022/11/26 09:25:50;;;;;;;19.02;9.35;;;;;;;6.92;100.00;102697.63;5222166;28;20165;-75
2022/11/26 09:28:21;;;;;;;17.40;9.75;;;;;;;6.89;100.00;102705.50;5222157;28;20041;-70
2022/11/26 09:30:58;;;;;;;23.00;12.68;;;;;;;7.15;100.00;102708.13;5262438;28;20506;-69
2022/11/26 09:33:30;;;;;;;21.33;11.07;;;;;;;7.10;100.00;102718.97;5237143;28;20070;-70
2022/11/26 09:36:04;;;;;;;23.05;10.52;;;;;;;7.16;100.00;102715.34;5226075;28;20373;-70
2022/11/26 09:38:39;;;;;;;22.63;12.98;;;;;;;7.12;100.00;102724.28;5236235;28;20051;-68
2022/11/26 09:41:37;;;;;;;25.77;12.75;;;;;;;7.20;100.00;102729.53;5240006;28;20025;-70
2022/11/26 09:44:26;;;;;;;24.17;11.95;;;;;;;7.19;100.00;102725.09;5240840;28;20079;-71
2022/11/26 09:47:15;;;;;;;65.22;45.80;;;;;;;7.26;100.00;102717.63;5242088;28;20060;-70
2022/11/26 09:50:08;;;;;;;28.75;17.42;;;;;;;7.29;100.00;102706.13;5241679;28;20021;-69
2022/11/26 09:52:51;;;;;;;20.95;11.63;;;;;;;7.32;100.00;102710.38;5241602;28;20037;-70
2022/11/26 09:55:33;;;;;;;19.33;10.70;;;;;;;7.33;100.00;102712.88;5242073;28;20104;-70
2022/11/26 09:58:13;;;;;;;18.77;9.95;;;;;;;7.32;100.00;102711.22;5221541;28;20130;-69
2022/11/26 10:00:48;;;;;;;21.80;11.02;;;;;;;7.33;100.00;102706.53;5229307;28;20026;-69
2022/11/26 10:03:29;;;;;;;17.77;10.27;;;;;;;7.40;100.00;102718.38;5241168;28;20029;-70
2022/11/26 10:06:31;;;;;;;24.38;11.35;;;;;;;7.53;100.00;102712.75;5233905;28;20413;-71
2022/11/26 10:09:34;;;;;;;20.90;11.38;;;;;;;7.51;100.00;102720.41;5221295;28;20095;-71
2022/11/26 10:12:38;;;;;;;13.13;8.18;;;;;;;7.81;100.00;102717.84;5220773;28;20400;-70
2022/11/26 10:15:17;;;;;;;22.55;11.23;;;;;;;7.64;100.00;102719.47;5223567;28;20065;-71
2022/11/26 10:18:07;;;;;;;20.63;9.98;;;;;;;7.59;100.00;102716.53;5220244;28;20014;-70
2022/11/26 10:20:44;;;;;;;22.17;9.35;;;;;;;7.74;100.00;102724.50;5221378;28;20034;-71
2022/11/26 10:23:18;;;;;;;20.67;10.10;;;;;;;7.76;100.00;102723.19;5242314;28;20029;-71
2022/11/26 10:26:04;;;;;;;21.08;10.60;;;;;;;7.75;100.00;102716.00;5228674;28;20396;-70
2022/11/26 10:28:46;;;;;;;19.95;10.32;;;;;;;7.75;100.00;102710.47;5259637;28;20017;-70
2022/11/26 10:31:26;;;;;;;25.20;12.02;;;;;;;7.80;100.00;102718.94;5238759;28;20040;-70
2022/11/26 10:34:02;;;;;;;18.80;9.57;;;;;;;7.80;100.00;102705.13;5251089;28;20040;-70
2022/11/26 10:36:38;;;;;;;16.48;9.80;;;;;;;7.81;100.00;102706.78;5261912;28;20025;-71
2022/11/26 10:39:13;;;;;;;17.60;9.70;;;;;;;7.90;100.00;102689.91;5261116;28;20025;-70
2022/11/26 10:41:48;;;;;;;26.92;10.80;;;;;;;7.89;100.00;102688.25;5261992;28;20035;-69
2022/11/26 10:44:28;;;;;;;22.88;9.85;;;;;;;7.94;100.00;102689.25;5262215;28;20108;-70
2022/11/26 10:47:28;;;;;;;15.68;9.15;;;;;;;7.97;100.00;102686.03;5259437;28;20036;-70
2022/11/26 10:50:00;;;;;;;17.95;8.82;;;;;;;7.98;100.00;102686.91;5220469;28;20117;-67
2022/11/26 10:52:32;;;;;;;21.83;9.20;;;;;;;8.08;100.00;102689.97;5219867;28;20496;-69
2022/11/26 10:55:28;;;;;;;20.98;12.45;;;;;;;8.17;100.00;102685.81;5220764;28;20060;-72
2022/11/26 10:58:14;;;;;;;23.42;10.48;;;;;;;8.22;100.00;102683.22;5220515;28;20072;-70
2022/11/26 11:00:50;;;;;;;19.83;9.18;;;;;;;8.24;100.00;102681.09;5237227;28;20053;-70
2022/11/26 11:03:24;;;;;;;17.70;9.65;;;;;;;8.28;100.00;102690.63;5261571;28;20033;-70
2022/11/26 11:06:10;;;;;;;22.20;12.52;;;;;;;8.37;100.00;102682.00;5228024;28;20413;-70
2022/11/26 11:08:42;;;;;;;24.27;10.75;;;;;;;8.38;100.00;102680.94;5219463;28;20060;-71
2022/11/26 11:11:27;;;;;;;21.52;9.02;;;;;;;8.52;100.00;102674.22;5220649;28;20034;-71
2022/11/26 11:13:58;;;;;;;24.17;9.43;;;;;;;8.54;100.00;102674.81;5219427;28;20026;-69
2022/11/26 11:16:38;;;;;;;15.07;9.93;;;;;;;8.86;100.00;102683.75;5220246;28;20288;-69
2022/11/26 11:19:22;;;;;;;24.90;9.93;;;;;;;8.81;100.00;102682.78;5220004;28;20448;-68
2022/11/26 11:21:53;;;;;;;34.75;18.88;;;;;;;8.83;100.00;102680.63;5219803;28;20062;-69
2022/11/26 11:24:27;;;;;;;20.35;10.98;;;;;;;8.88;100.00;102686.31;5255666;28;20496;-69
2022/11/26 11:26:59;;;;;;;21.67;9.00;;;;;;;9.05;100.00;102679.03;5225381;28;20033;-68
2022/11/26 11:29:37;;;;;;;16.67;7.90;;;;;;;9.26;100.00;102693.44;5239654;28;20095;-68
2022/11/26 11:32:34;;;;;;;173.27;117.15;;;;;;;9.34;100.00;102677.31;5240522;28;20036;-67
2022/11/26 11:35:29;;;;;;;20.88;10.35;;;;;;;9.33;100.00;102678.41;5238299;28;20580;-69
2022/11/26 11:38:00;;;;;;;15.65;8.30;;;;;;;9.27;100.00;102678.50;5229321;28;20136;-70
2022/11/26 11:40:41;;;;;;;60.13;49.25;;;;;;;9.37;100.00;102681.53;5220107;28;20105;-70
2022/11/26 11:43:15;;;;;;;59.67;42.42;;;;;;;9.54;100.00;102673.41;5219071;28;20137;-70
2022/11/26 11:46:15;;;;;;;19.95;7.78;;;;;;;9.46;100.00;102671.81;5219006;28;20557;-70
2022/11/26 11:49:20;;;;;;;18.20;6.78;;;;;;;9.46;100.00;102671.81;5233851;28;20033;-70
2022/11/26 11:52:19;;;;;;;14.57;8.63;;;;;;;9.43;100.00;102669.50;5228865;28;20017;-70
2022/11/26 11:55:08;;;;;;;13.68;6.43;;;;;;;9.44;100.00;102671.22;5244144;28;20033;-70
2022/11/26 11:57:54;;;;;;;19.58;8.32;;;;;;;9.49;100.00;102657.50;5240206;28;20021;-71
2022/11/26 12:00:39;;;;;;;18.75;10.43;;;;;;;9.67;100.00;102661.25;5244055;28;20469;-68
2022/11/26 12:03:35;;;;;;;24.42;11.77;;;;;;;9.55;100.00;102658.44;5255473;28;20075;-69
2022/11/26 12:06:49;;;;;;;17.27;7.18;;;;;;;9.52;100.00;102659.78;5243960;28;20053;-70
2022/11/26 12:09:39;;;;;;;17.73;6.80;;;;;;;9.50;100.00;102650.00;5243736;28;20044;-70
2022/11/26 12:12:20;;;;;;;17.35;7.63;;;;;;;9.50;100.00;102653.63;5259389;28;20049;-69
2022/11/26 12:14:58;;;;;;;44.72;31.27;;;;;;;9.42;100.00;102648.44;5223241;28;20075;-70
2022/11/26 12:17:40;;;;;;;30.63;12.10;;;;;;;9.44;99.95;102653.75;5222935;28;20081;-70
2022/11/26 12:20:26;;;;;;;18.10;7.50;;;;;;;9.41;100.00;102660.59;5223135;28;20029;-70
2022/11/26 12:23:15;;;;;;;18.50;7.50;;;;;;;9.41;100.00;102657.84;5236971;28;20033;-70
2022/11/26 12:25:55;;;;;;;18.90;8.95;;;;;;;9.42;100.00;102658.69;5264039;28;20468;-70
2022/11/26 12:28:32;;;;;;;16.52;7.00;;;;;;;9.41;100.00;102662.50;5264418;28;20078;-70
2022/11/26 12:31:18;;;;;;;16.48;7.75;;;;;;;9.45;100.00;102658.19;5227794;28;20026;-71
2022/11/26 12:34:24;;;;;;;25.67;12.73;;;;;;;9.44;100.00;102657.38;5222954;28;20469;-71
2022/11/26 12:37:04;;;;;;;19.13;8.80;;;;;;;9.44;100.00;102673.13;5248148;28;20053;-70
2022/11/26 12:39:41;;;;;;;17.95;7.38;;;;;;;9.49;100.00;102665.81;5242672;28;20407;-70
2022/11/26 12:42:27;;;;;;;43.08;33.97;;;;;;;9.53;100.00;102666.16;5237291;28;20392;-71
2022/11/26 12:45:16;;;;;;;20.92;8.93;;;;;;;9.55;100.00;102664.84;5241072;28;20026;-71
2022/11/26 12:47:58;;;;;;;16.33;7.32;;;;;;;9.51;100.00;102669.19;5227759;28;20069;-70
2022/11/26 12:51:00;;;;;;;72.30;45.50;;;;;;;9.55;100.00;102659.28;5226026;28;20385;-71
2022/11/26 12:53:50;;;;;;;19.73;8.65;;;;;;;9.54;100.00;102665.94;5225647;28;20385;-69
2022/11/26 12:57:01;;;;;;;18.63;8.18;;;;;;;9.60;100.00;102666.06;5263431;28;20021;-70
2022/11/26 12:59:38;;;;;;;19.95;7.15;;;;;;;9.55;100.00;102659.28;5259438;28;20052;-70
2022/11/26 13:02:25;;;;;;;27.08;7.32;;;;;;;9.61;100.00;102662.19;5263826;28;20376;-70
2022/11/26 13:05:00;;;;;;;13.65;6.40;;;;;;;9.64;100.00;102664.47;5245812;28;20045;-69
2022/11/26 13:07:52;;;;;;;20.48;7.97;;;;;;;9.61;100.00;102660.25;5242320;28;20120;-69
2022/11/26 13:10:48;;;;;;;17.95;7.78;;;;;;;9.67;100.00;102650.16;5260209;28;20029;-72
2022/11/26 13:13:42;;;;;;;18.23;7.28;;;;;;;9.73;100.00;102651.97;5260518;28;20544;-70
2022/11/26 13:16:39;;;;;;;36.83;25.77;;;;;;;9.78;100.00;102647.38;5254927;28;20366;-71
2022/11/26 13:19:33;;;;;;;38.88;23.23;;;;;;;9.83;100.00;102632.81;5242449;28;20110;-70
2022/11/26 13:22:33;;;;;;;57.63;38.97;;;;;;;9.93;99.81;102633.06;5241060;28;20052;-68
2022/11/26 13:25:26;;;;;;;26.63;13.00;;;;;;;10.07;99.22;102630.03;5230559;28;20469;-67
2022/11/26 13:28:32;;;;;;;16.05;8.43;;;;;;;10.13;98.79;102623.53;5259065;28;20106;-69
2022/11/26 13:31:35;;;;;;;17.83;7.03;;;;;;;10.25;98.66;102607.69;5262707;28;20048;-74
2022/11/26 13:34:37;;;;;;;17.42;6.38;;;;;;;10.30;97.35;102610.59;5244651;28;20025;-72
2022/11/26 13:37:25;;;;;;;11.65;5.60;;;;;;;10.38;96.27;102607.47;5239997;28;20022;-72
2022/11/26 13:40:05;;;;;;;14.13;6.13;;;;;;;10.43;95.40;102610.34;5241397;28;20546;-78
2022/11/26 13:43:15;;;;;;;13.73;5.38;;;;;;;10.48;95.46;102611.50;5244045;28;20041;-71
2022/11/26 13:46:11;;;;;;;12.45;6.65;;;;;;;10.66;96.13;102605.81;5241445;28;20029;-71
2022/11/26 13:49:03;;;;;;;12.88;5.40;;;;;;;10.64;94.85;102602.44;5241370;28;20441;-70
2022/11/26 13:51:41;;;;;;;16.00;4.75;;;;;;;10.61;94.97;102597.38;5240146;28;20029;-70
2022/11/26 13:54:36;;;;;;;14.25;5.55;;;;;;;10.76;95.92;102594.91;5239048;28;20038;-69
2022/11/26 13:57:17;;;;;;;11.52;4.80;;;;;;;10.87;96.06;102590.38;5237299;28;20171;-69
2022/11/26 13:59:51;;;;;;;16.08;5.43;;;;;;;10.78;95.13;102595.47;5237888;28;20028;-69
2022/11/26 14:02:32;;;;;;;15.50;5.45;;;;;;;10.75;94.58;102595.13;5237974;28;20420;-68
2022/11/26 14:05:07;;;;;;;14.55;7.32;;;;;;;10.83;94.42;102594.72;5239459;28;20049;-69
2022/11/26 14:07:39;;;;;;;23.17;11.25;;;;;;;10.98;95.06;102588.63;5237608;28;20059;-71
2022/11/26 14:10:35;;;;;;;13.68;5.18;;;;;;;10.88;94.10;102594.81;5239841;28;20029;-71
2022/11/26 14:13:08;;;;;;;;;;;;;;;10.88;93.08;102592.88;5237659;28;20125;-69
2022/11/26 14:15:40;;;;;;;20.15;6.40;;;;;;;10.78;93.48;102589.91;5239768;28;20007;-70
2022/11/26 14:18:16;;;;;;;13.35;5.00;;;;;;;10.79;93.43;102591.63;5239625;28;20065;-70
2022/11/26 14:21:10;;;;;;;16.27;5.45;;;;;;;10.75;93.07;102590.44;5241805;28;20052;-70
2022/11/26 14:23:45;;;;;;;12.05;4.72;;;;;;;10.92;94.95;102587.69;5234514;28;20739;-71
2022/11/26 14:26:27;;;;;;;15.00;4.50;;;;;;;10.73;93.47;102584.28;5242086;28;20471;-71
2022/11/26 14:29:11;;;;;;;12.82;4.50;;;;;;;10.99;93.98;102585.63;5237609;28;20384;-71
2022/11/26 14:31:50;;;;;;;14.20;5.53;;;;;;;10.76;93.66;102575.47;5237397;28;20017;-69
2022/11/26 14:34:37;;;;;;;19.73;8.70;;;;;;;10.73;93.33;102575.94;5238147;28;20053;-70
2022/11/26 14:37:12;;;;;;;17.13;8.25;;;;;;;10.77;93.49;102579.94;5259859;28;20395;-71
2022/11/26 14:39:44;;;;;;;16.17;5.03;;;;;;;10.73;92.07;102581.50;5261313;28;20029;-70
2022/11/26 14:42:18;;;;;;;10.65;4.45;;;;;;;10.71;91.97;102582.84;5262000;28;20048;-71
2022/11/26 14:45:17;;;;;;;13.63;4.22;;;;;;;10.64;91.74;102583.00;5260928;28;20021;-72
2022/11/26 14:47:51;;;;;;;12.23;5.20;;;;;;;10.63;92.49;102581.31;5250450;28;20211;-70
2022/11/26 14:50:24;;;;;;;17.05;6.15;;;;;;;10.70;91.92;102582.00;5261001;28;20116;-72
2022/11/26 14:53:02;;;;;;;13.38;5.22;;;;;;;10.66;92.62;102578.06;5260876;28;20500;-70
2022/11/26 14:55:33;;;;;;;17.17;5.57;;;;;;;10.66;92.35;102575.28;5261030;28;20021;-71
2022/11/26 14:58:12;;;;;;;12.88;4.88;;;;;;;10.63;91.16;102584.06;5261202;28;20064;-71
2022/11/26 15:00:59;;;;;;;15.20;5.22;;;;;;;10.69;91.81;102587.81;5260681;28;20349;-71
2022/11/26 15:03:33;;;;;;;20.92;5.13;;;;;;;10.50;90.86;102587.16;5234737;28;20030;-69
2022/11/26 15:06:05;;;;;;;12.02;4.40;;;;;;;10.45;90.72;102591.50;5219299;28;20046;-68
2022/11/26 15:08:37;;;;;;;18.15;5.72;;;;;;;10.35;90.50;102591.28;5220325;28;20033;-70
2022/11/26 15:11:10;;;;;;;17.55;4.75;;;;;;;10.37;90.11;102593.81;5220592;28;20120;-69
2022/11/26 15:13:45;;;;;;;16.67;5.82;;;;;;;10.32;90.11;102589.00;5238409;28;20665;-72
2022/11/26 15:16:35;;;;;;;47.25;34.38;;;;;;;10.42;91.56;102578.13;5261779;28;20048;-73
2022/11/26 15:19:11;;;;;;;19.45;7.22;;;;;;;10.38;91.04;102581.63;5256429;28;20369;-71
2022/11/26 15:21:43;;;;;;;11.75;4.95;;;;;;;10.56;91.55;102588.97;5236877;28;20112;-72
2022/11/26 15:24:17;;;;;;;36.03;24.63;;;;;;;10.61;92.07;102586.28;5237811;28;20100;-72
2022/11/26 15:26:49;;;;;;;13.50;6.25;;;;;;;10.45;90.38;102580.41;5220729;28;20065;-71
2022/11/26 15:29:33;;;;;;;14.63;5.68;;;;;;;10.60;90.96;102581.81;5244158;28;20060;-71
2022/11/26 15:32:05;;;;;;;10.45;5.18;;;;;;;10.62;91.34;102591.56;5245191;28;20492;-72
2022/11/26 15:34:36;;;;;;;15.57;5.32;;;;;;;10.42;90.81;102586.44;5243708;28;20029;-70
2022/11/26 15:37:07;;;;;;;17.42;5.03;;;;;;;10.29;89.45;102586.75;5235038;28;20105;-69
2022/11/26 15:39:41;;;;;;;15.40;6.05;;;;;;;10.22;90.65;102591.53;5229379;28;20028;-68
2022/11/26 15:42:28;;;;;;;16.85;6.40;;;;;;;10.44;91.86;102598.16;5264357;28;20025;-71
2022/11/26 15:45:00;;;;;;;12.05;4.80;;;;;;;10.21;91.16;102600.97;5264729;28;20127;-71
2022/11/26 15:47:32;;;;;;;10.02;4.15;;;;;;;10.11;90.39;102589.66;5265329;28;20021;-69
2022/11/26 15:50:04;;;;;;;38.78;24.80;;;;;;;10.08;90.66;102595.69;5264511;28;20036;-69
2022/11/26 15:52:41;;;;;;;12.18;4.50;;;;;;;10.01;90.49;102596.66;5265307;28;20116;-69
2022/11/26 15:55:27;;;;;;;14.13;4.57;;;;;;;10.06;91.19;102603.41;5225893;28;20030;-70
2022/11/26 15:58:02;;;;;;;9.05;4.53;;;;;;;10.07;91.19;102603.13;5231013;28;20087;-70
2022/11/26 16:00:38;;;;;;;13.05;4.53;;;;;;;9.98;90.77;102599.91;5265180;28;20040;-71
2022/11/26 16:03:37;;;;;;;15.57;5.07;;;;;;;9.90;91.93;102594.75;5264351;28;20373;-68
2022/11/26 16:06:27;;;;;;;14.13;5.03;;;;;;;9.94;91.69;102595.09;5257743;28;20052;-70
2022/11/26 16:09:05;;;;;;;15.43;5.68;;;;;;;10.23;92.38;102601.56;5264515;28;20400;-69
2022/11/26 16:11:39;;;;;;;14.95;5.15;;;;;;;9.85;90.34;102597.41;5249249;28;20033;-69
2022/11/26 16:14:33;;;;;;;12.82;4.82;;;;;;;9.98;92.31;102602.69;5242258;28;20468;-70
2022/11/26 16:17:14;;;;;;;11.85;5.55;;;;;;;9.79;90.91;102590.03;5261395;28;20075;-70
2022/11/26 16:19:52;;;;;;;12.68;5.63;;;;;;;9.75;90.96;102586.09;5245082;28;20030;-69
2022/11/26 16:22:31;;;;;;;14.32;5.03;;;;;;;9.74;91.34;102598.22;5232386;28;20025;-70
2022/11/26 16:25:06;;;;;;;14.20;4.45;;;;;;;9.58;91.66;102594.25;5255170;28;20413;-70
2022/11/26 16:27:37;;;;;;;14.02;6.10;;;;;;;9.57;91.05;102601.72;5256657;28;20049;-70
2022/11/26 16:30:15;;;;;;;18.83;8.57;;;;;;;9.64;92.60;102609.06;5252830;28;20025;-70
2022/11/26 16:32:46;;;;;;;15.90;6.45;;;;;;;9.56;91.62;102600.06;5259960;28;20460;-70
2022/11/26 16:35:17;;;;;;;16.27;5.82;;;;;;;9.53;92.40;102602.44;5241184;28;20029;-68
2022/11/26 16:37:52;;;;;;;16.90;9.05;;;;;;;9.54;91.93;102601.38;5240302;28;20072;-69
